createdAt,value
2023-07-26T00:02:02.978Z,16.60
2023-07-26T00:07:06.024Z,16.50
2023-07-26T00:12:09.018Z,16.40
2023-07-26T00:17:11.860Z,16.60
2023-07-26T00:22:14.626Z,16.60
2023-07-26T00:27:18.523Z,16.60
2023-07-26T00:32:21.377Z,16.60
2023-07-26T00:37:24.159Z,16.70
2023-07-26T00:42:27.948Z,16.60
2023-07-26T00:47:31.216Z,16.50
2023-07-26T00:52:35.630Z,16.40
2023-07-26T00:57:38.951Z,16.40
2023-07-26T01:02:41.834Z,16.40
2023-07-26T01:07:52.586Z,16.50
2023-07-26T01:13:02.716Z,16.40
2023-07-26T01:18:15.741Z,16.10
2023-07-26T01:23:18.517Z,16.10
2023-07-26T01:28:21.320Z,16.00
2023-07-26T01:33:25.408Z,16.00
2023-07-26T01:38:31.289Z,16.00
2023-07-26T01:43:34.447Z,16.00
2023-07-26T01:48:37.182Z,16.00
2023-07-26T01:53:39.976Z,16.30
2023-07-26T01:58:42.893Z,16.10
2023-07-26T02:03:45.675Z,16.10
2023-07-26T02:08:48.692Z,16.20
2023-07-26T02:13:51.427Z,16.10
2023-07-26T02:18:54.178Z,16.10
2023-07-26T02:23:57.054Z,16.10
2023-07-26T02:29:00.034Z,16.20
2023-07-26T02:34:02.851Z,16.00
2023-07-26T02:39:05.598Z,16.00
2023-07-26T02:44:08.596Z,16.00
2023-07-26T02:49:11.745Z,15.70
2023-07-26T02:54:14.503Z,15.80
2023-07-26T02:59:18.835Z,15.90
2023-07-26T03:04:21.593Z,16.00
2023-07-26T03:09:24.331Z,16.10
2023-07-26T03:14:27.068Z,15.90
2023-07-26T03:19:29.908Z,15.70
2023-07-26T03:24:33.110Z,15.90
2023-07-26T03:29:36.046Z,15.80
2023-07-26T03:34:38.784Z,15.70
2023-07-26T03:39:41.781Z,15.70
2023-07-26T03:44:44.652Z,15.60
2023-07-26T03:49:47.476Z,15.60
2023-07-26T03:54:50.196Z,15.80
2023-07-26T03:59:52.947Z,15.60
2023-07-26T04:04:57.447Z,15.80
2023-07-26T04:10:00.849Z,15.80
2023-07-26T04:15:03.968Z,15.80
2023-07-26T04:20:07.373Z,15.80
2023-07-26T04:25:10.608Z,16.00
2023-07-26T04:30:13.538Z,16.10
2023-07-26T04:35:16.551Z,16.00
2023-07-26T04:40:19.566Z,16.00
2023-07-26T04:45:22.419Z,15.80
2023-07-26T04:50:25.637Z,15.90
2023-07-26T04:55:28.397Z,16.00
2023-07-26T05:00:31.133Z,16.00
2023-07-26T05:05:37.399Z,16.30
2023-07-26T05:10:40.118Z,16.30
2023-07-26T05:15:44.950Z,16.50
2023-07-26T05:20:51.660Z,16.70
2023-07-26T05:25:54.552Z,16.70
2023-07-26T05:30:58.218Z,16.60
2023-07-26T05:36:01.100Z,16.70
2023-07-26T05:41:07.238Z,16.90
2023-07-26T05:46:10.423Z,16.90
2023-07-26T05:51:13.176Z,16.90
2023-07-26T05:56:16.302Z,16.90
2023-07-26T06:01:19.088Z,16.80
2023-07-26T06:06:21.974Z,17.00
2023-07-26T06:11:24.914Z,17.00
2023-07-26T06:16:28.571Z,17.10
2023-07-26T06:21:31.609Z,17.30
2023-07-26T06:26:34.626Z,17.20
2023-07-26T06:31:37.428Z,17.30
2023-07-26T06:36:40.286Z,17.20
2023-07-26T06:41:43.186Z,17.10
2023-07-26T06:46:45.954Z,17.20
2023-07-26T06:51:52.830Z,17.10
2023-07-26T06:56:55.940Z,17.20
2023-07-26T07:01:58.805Z,17.60
2023-07-26T07:07:01.630Z,17.70
2023-07-26T07:12:05.017Z,17.50
2023-07-26T07:17:07.784Z,17.50
2023-07-26T07:22:10.528Z,17.60
2023-07-26T07:27:13.392Z,17.60
2023-07-26T07:32:22.016Z,17.90
2023-07-26T07:37:25.448Z,18.20
2023-07-26T07:42:28.272Z,18.50
2023-07-26T07:47:31.067Z,18.50
2023-07-26T07:52:34.598Z,18.50
2023-07-26T07:57:37.568Z,18.60
2023-07-26T08:02:40.411Z,18.50
2023-07-26T08:07:43.194Z,18.40
2023-07-26T08:12:46.124Z,18.10
2023-07-26T08:17:48.934Z,18.00
2023-07-26T08:22:52.834Z,18.00
2023-07-26T08:27:57.254Z,18.00
2023-07-26T08:33:00.173Z,17.90
2023-07-26T08:38:03.062Z,18.00
2023-07-26T08:43:06.579Z,18.20
2023-07-26T08:48:11.086Z,18.20
2023-07-26T08:53:15.696Z,18.20
2023-07-26T08:58:18.806Z,18.20
2023-07-26T09:03:21.684Z,18.50
2023-07-26T09:08:24.587Z,18.30
2023-07-26T09:13:27.450Z,18.60
2023-07-26T09:18:31.778Z,19.00
2023-07-26T09:23:51.988Z,19.10
2023-07-26T09:28:55.286Z,19.00
2023-07-26T09:33:58.136Z,18.90
2023-07-26T09:39:01.027Z,19.50
2023-07-26T09:49:08.312Z,19.50
2023-07-26T09:54:12.888Z,19.90
2023-07-26T09:59:16.311Z,19.30
2023-07-26T10:04:50.561Z,18.90
2023-07-26T10:09:54.882Z,18.90
2023-07-26T10:14:57.994Z,19.20
2023-07-26T10:20:01.138Z,20.00
2023-07-26T10:25:04.261Z,19.90
2023-07-26T10:30:08.101Z,20.00
2023-07-26T10:35:11.835Z,20.00
2023-07-26T10:40:37.871Z,20.60
2023-07-26T10:45:45.644Z,20.90
2023-07-26T10:50:49.254Z,21.00
2023-07-26T10:55:52.144Z,21.30
2023-07-26T11:01:05.032Z,21.70
2023-07-26T11:06:08.118Z,21.40
2023-07-26T11:11:10.934Z,21.80
2023-07-26T11:16:18.207Z,22.00
2023-07-26T11:21:21.853Z,21.70
2023-07-26T11:26:26.290Z,21.30
2023-07-26T11:31:29.046Z,21.10
2023-07-26T11:36:32.165Z,21.30
2023-07-26T11:41:35.136Z,20.80
2023-07-26T11:46:38.433Z,20.20
2023-07-26T11:51:41.688Z,19.90
2023-07-26T11:56:45.327Z,19.80
2023-07-26T12:01:49.193Z,20.00
2023-07-26T12:06:52.162Z,20.10
2023-07-26T12:11:55.387Z,20.10
2023-07-26T12:16:58.665Z,20.90
2023-07-26T12:22:01.835Z,20.90
2023-07-26T12:27:05.585Z,21.50
2023-07-26T12:32:12.224Z,21.70
2023-07-26T12:42:36.501Z,22.50
2023-07-26T12:47:40.116Z,22.20
2023-07-26T12:52:43.020Z,22.30
2023-07-26T12:57:45.755Z,22.20
2023-07-26T13:02:48.769Z,22.00
2023-07-26T13:07:52.829Z,21.90
2023-07-26T13:12:55.922Z,22.10
2023-07-26T13:17:58.806Z,22.00
2023-07-26T13:23:01.792Z,21.80
2023-07-26T13:28:04.797Z,21.50
2023-07-26T13:33:07.689Z,22.00
2023-07-26T13:38:11.078Z,22.70
2023-07-26T13:43:14.561Z,22.90
2023-07-26T13:48:20.332Z,22.20
2023-07-26T13:53:23.233Z,22.10
2023-07-26T13:58:26.167Z,22.00
2023-07-26T14:03:28.930Z,22.30
2023-07-26T14:08:31.678Z,23.00
2023-07-26T14:13:34.498Z,23.30
2023-07-26T14:18:38.205Z,23.60
2023-07-26T14:23:41.010Z,23.30
2023-07-26T14:28:43.796Z,23.80
2023-07-26T14:33:46.676Z,23.00
2023-07-26T14:38:49.657Z,23.10
2023-07-26T14:43:52.187Z,22.90
2023-07-26T14:48:54.556Z,23.00
2023-07-26T14:53:56.867Z,22.70
2023-07-26T14:58:59.649Z,22.20
2023-07-26T15:04:03.426Z,22.60
2023-07-26T15:09:06.324Z,22.80
2023-07-26T15:14:09.715Z,22.20
2023-07-26T15:19:12.028Z,21.90
2023-07-26T15:24:14.444Z,22.20
2023-07-26T15:29:17.774Z,22.30
2023-07-26T15:34:20.576Z,22.40
2023-07-26T15:39:23.019Z,22.50
2023-07-26T15:49:36.285Z,22.30
2023-07-26T15:54:39.086Z,22.30
2023-07-26T15:59:42.084Z,22.40
2023-07-26T16:09:49.978Z,22.20
2023-07-26T16:15:35.711Z,22.10
2023-07-26T16:20:15.162Z,22.00
2023-07-26T16:25:23.877Z,21.90
2023-07-26T16:30:26.374Z,22.00
2023-07-26T16:35:28.906Z,21.70
2023-07-26T16:40:31.344Z,21.60
2023-07-26T16:45:33.890Z,21.70
2023-07-26T16:50:37.665Z,21.40
2023-07-26T16:55:40.118Z,21.10
2023-07-26T17:00:43.470Z,20.90
2023-07-26T17:05:46.116Z,20.80
2023-07-26T17:10:48.614Z,20.60
2023-07-26T17:15:51.088Z,20.20
2023-07-26T17:20:53.600Z,20.20
2023-07-26T17:25:57.054Z,19.80
2023-07-26T17:30:59.482Z,19.60
2023-07-26T17:36:14.218Z,19.50
2023-07-26T17:41:17.903Z,19.30
2023-07-26T17:46:20.453Z,18.80
2023-07-26T17:51:22.864Z,18.30
2023-07-26T17:56:25.444Z,17.90
2023-07-26T18:01:28.213Z,17.70
2023-07-26T18:06:30.707Z,17.60
2023-07-26T18:11:33.222Z,17.60
2023-07-26T18:16:35.601Z,17.50
2023-07-26T18:21:38.645Z,17.30
2023-07-26T18:26:42.091Z,17.20
2023-07-26T18:31:44.939Z,17.20
2023-07-26T18:36:47.757Z,17.20
2023-07-26T18:41:50.215Z,17.20
2023-07-26T18:46:54.982Z,17.00
2023-07-26T18:51:57.418Z,17.00
2023-07-26T18:57:00.340Z,16.90
2023-07-26T19:02:04.526Z,16.80
2023-07-26T19:07:07.933Z,16.50
2023-07-26T19:12:10.574Z,16.40
2023-07-26T19:17:12.955Z,16.20
2023-07-26T19:22:15.325Z,16.20
2023-07-26T19:27:17.704Z,16.30
2023-07-26T19:32:20.086Z,16.20
2023-07-26T19:37:22.521Z,16.10
2023-07-26T19:42:25.034Z,16.00
2023-07-26T19:47:27.608Z,16.00
2023-07-26T19:52:30.937Z,15.90
2023-07-26T19:57:33.714Z,15.90
2023-07-26T20:02:36.643Z,15.70
2023-07-26T20:07:39.277Z,15.60
2023-07-26T20:12:41.759Z,15.50
2023-07-26T20:17:44.332Z,15.40
2023-07-26T20:22:46.747Z,15.30
2023-07-26T20:27:49.190Z,15.30
2023-07-26T20:32:51.907Z,15.00
2023-07-26T20:37:55.243Z,15.00
2023-07-26T20:42:57.766Z,15.20
2023-07-26T20:48:00.324Z,15.00
2023-07-26T20:53:03.686Z,15.00
2023-07-26T20:58:06.332Z,14.90
2023-07-26T21:03:09.176Z,14.80
2023-07-26T21:08:11.658Z,14.80
2023-07-26T21:13:14.083Z,14.60
2023-07-26T21:18:16.807Z,14.50
2023-07-26T21:23:19.197Z,14.50
2023-07-26T21:28:21.610Z,14.30
2023-07-26T21:33:24.296Z,14.10
2023-07-26T21:38:26.698Z,14.10
2023-07-26T21:43:29.109Z,14.10
2023-07-26T21:48:31.602Z,14.00
2023-07-26T21:53:34.784Z,13.90
2023-07-26T21:58:37.465Z,13.60
2023-07-26T22:03:40.208Z,13.60
2023-07-26T22:08:42.623Z,13.70
2023-07-26T22:13:45.294Z,13.60
2023-07-26T22:18:47.812Z,13.70
2023-07-26T22:23:52.417Z,13.60
2023-07-26T22:28:54.863Z,13.70
2023-07-26T22:33:57.294Z,13.70
2023-07-26T22:38:59.859Z,13.90
2023-07-26T22:44:02.364Z,13.70
2023-07-26T22:49:04.835Z,13.60
2023-07-26T22:54:07.248Z,13.60
2023-07-26T22:59:10.384Z,13.60
2023-07-26T23:04:12.879Z,13.50
2023-07-26T23:09:15.337Z,13.40
2023-07-26T23:14:18.739Z,13.50
2023-07-26T23:19:21.313Z,13.40
2023-07-26T23:24:24.965Z,13.40
2023-07-26T23:29:27.355Z,13.20
2023-07-26T23:34:29.804Z,13.00
2023-07-26T23:39:33.060Z,13.30
2023-07-26T23:44:35.479Z,13.20
2023-07-26T23:49:37.896Z,13.00
2023-07-26T23:54:40.345Z,12.90
2023-07-26T23:59:43.115Z,13.00
